Time;durP1;ratioP1;P1;durP2;ratioP2;P2;SDS_P1;SDS_P2;PMS_P1;PMS_P2;Temp;Humidity;BMP_temperature;BMP_pressure;BME280_temperature;BME280_humidity;BME280_pressure;Samples;Min_cycle;Max_cycle;Signal;HPM_P1;HPM_P2
2022/08/29 04:00:15;;;;;;;1.30;1.30;;;17.30;99.90;;;;;;6055893;23;20699;31
2022/08/29 04:02:44;;;;;;;3.30;1.87;;;17.30;99.90;;;;;;4970965;28;20485;-73
2022/08/29 04:05:11;;;;;;;1.60;1.50;;;17.30;99.90;;;;;;4973410;28;20462;-74
2022/08/29 04:07:41;;;;;;;0.67;0.63;;;17.30;99.90;;;;;;4973883;28;20465;-73
2022/08/29 04:10:11;;;;;;;1.50;1.40;;;17.30;99.90;;;;;;4974164;28;20583;-73
2022/08/29 04:12:37;;;;;;;2.07;1.97;;;17.30;99.90;;;;;;4954388;28;20496;-73
2022/08/29 04:15:06;;;;;;;1.77;1.67;;;17.30;99.90;;;;;;4970129;23;20506;-72
2022/08/29 04:17:34;;;;;;;2.10;1.37;;;17.30;99.90;;;;;;4973546;28;20461;-71
2022/08/29 04:20:03;;;;;;;3.80;2.20;;;17.30;99.90;;;;;;4974478;28;20535;-72
2022/08/29 04:22:29;;;;;;;3.30;1.43;;;17.30;99.90;;;;;;4974470;28;20823;-72
2022/08/29 04:24:56;;;;;;;2.50;1.47;;;17.30;99.90;;;;;;4966161;28;20488;-72
2022/08/29 04:27:23;;;;;;;1.83;1.60;;;17.20;99.90;;;;;;4954340;28;20939;-72
2022/08/29 04:29:49;;;;;;;2.00;1.07;;;17.20;99.90;;;;;;4953890;28;20474;-72
2022/08/29 04:32:17;;;;;;;1.50;1.27;;;17.10;99.90;;;;;;4954035;28;20493;-71
2022/08/29 04:34:45;;;;;;;0.90;0.90;;;17.10;99.90;;;;;;4954201;28;20597;-72
2022/08/29 04:37:11;;;;;;;3.00;1.40;;;17.00;99.90;;;;;;4954355;28;20478;-71
2022/08/29 04:39:38;;;;;;;2.63;1.43;;;17.00;99.90;;;;;;4969519;28;20469;-71
2022/08/29 04:42:05;;;;;;;4.20;1.80;;;17.00;99.90;;;;;;4967217;28;20544;-71
2022/08/29 04:44:33;;;;;;;2.70;1.87;;;16.90;99.90;;;;;;4964641;28;20487;-71
2022/08/29 04:47:00;;;;;;;8.80;1.77;;;16.90;99.90;;;;;;4973138;28;20473;-71
2022/08/29 04:49:27;;;;;;;3.40;2.20;;;16.90;99.90;;;;;;4964151;28;20471;-71
2022/08/29 04:51:55;;;;;;;2.90;1.67;;;16.80;99.90;;;;;;4959947;28;20826;-71
2022/08/29 04:54:22;;;;;;;1.50;1.40;;;16.80;99.90;;;;;;4953419;28;20935;-71
2022/08/29 04:56:48;;;;;;;1.97;1.87;;;16.70;99.90;;;;;;4953896;28;20470;-71
2022/08/29 04:59:15;;;;;;;1.90;1.80;;;16.70;99.90;;;;;;4953553;28;20472;-71
2022/08/29 05:01:42;;;;;;;8.13;2.27;;;16.80;99.90;;;;;;4970736;28;20478;-71
2022/08/29 05:04:09;;;;;;;2.03;1.93;;;16.80;99.90;;;;;;4959659;28;20461;-72
2022/08/29 05:06:36;;;;;;;1.10;1.10;;;16.80;99.90;;;;;;4953454;28;20848;-72
2022/08/29 05:09:04;;;;;;;2.00;2.00;;;16.80;99.90;;;;;;4959511;28;20469;-71
2022/08/29 05:11:33;;;;;;;2.03;1.90;;;16.90;99.90;;;;;;4972903;28;20969;-71
2022/08/29 05:14:01;;;;;;;1.20;1.20;;;16.90;99.90;;;;;;4971516;28;20503;-71
2022/08/29 05:16:29;;;;;;;1.90;1.80;;;16.90;99.90;;;;;;4972796;28;20931;-71
2022/08/29 05:18:57;;;;;;;2.53;1.77;;;16.90;99.90;;;;;;4972744;28;20477;-71
2022/08/29 05:21:26;;;;;;;2.17;1.87;;;16.90;99.90;;;;;;4972358;28;20557;-71
2022/08/29 05:23:53;;;;;;;1.97;1.87;;;16.90;99.90;;;;;;4972262;28;20474;-71
2022/08/29 05:26:21;;;;;;;1.07;1.07;;;17.00;99.90;;;;;;4971817;28;20491;-72
2022/08/29 05:28:48;;;;;;;2.13;2.13;;;17.00;99.90;;;;;;4972732;28;20556;-71
2022/08/29 05:31:15;;;;;;;4.57;1.77;;;17.00;99.90;;;;;;4972225;28;20477;-71
2022/08/29 05:33:42;;;;;;;2.60;2.43;;;17.00;99.90;;;;;;4972600;28;20802;-72
2022/08/29 05:36:10;;;;;;;16.83;2.10;;;17.10;99.90;;;;;;4972721;28;20531;-72
2022/08/29 05:38:36;;;;;;;1.97;1.97;;;17.10;99.90;;;;;;4972149;28;20468;-71
2022/08/29 05:41:03;;;;;;;1.80;1.70;;;17.20;99.90;;;;;;4972350;28;20476;-72
2022/08/29 05:43:32;;;;;;;1.50;1.43;;;17.20;99.90;;;;;;4972163;28;21032;-72
2022/08/29 05:46:02;;;;;;;2.67;2.07;;;17.20;99.90;;;;;;4972433;28;20488;-72
2022/08/29 05:48:32;;;;;;;1.70;1.67;;;17.30;99.90;;;;;;4966334;28;20555;-72
2022/08/29 05:50:59;;;;;;;2.53;2.33;;;17.40;99.90;;;;;;4970144;28;20490;-72
2022/08/29 05:53:27;;;;;;;2.60;2.50;;;17.40;99.90;;;;;;4969810;28;20489;-72
2022/08/29 05:55:55;;;;;;;3.60;2.97;;;17.50;99.90;;;;;;4952972;28;20674;-72
2022/08/29 05:58:22;;;;;;;3.70;2.40;;;17.50;99.90;;;;;;4952744;28;20548;-72
2022/08/29 06:00:50;;;;;;;2.73;2.30;;;17.50;99.90;;;;;;4953208;28;20470;-72
2022/08/29 06:03:17;;;;;;;1.57;1.57;;;17.50;99.90;;;;;;4961966;28;20486;-72
2022/08/29 06:05:49;;;;;;;2.23;2.00;;;17.60;99.90;;;;;;4971085;28;20638;-72
2022/08/29 06:08:16;;;;;;;4.03;2.83;;;17.50;99.90;;;;;;4972237;28;20465;-72
2022/08/29 06:10:44;;;;;;;2.83;2.17;;;17.60;99.90;;;;;;4972645;28;20607;-72
2022/08/29 06:13:11;;;;;;;1.73;1.63;;;17.60;99.90;;;;;;4972494;28;20583;-72
2022/08/29 06:15:38;;;;;;;4.20;2.40;;;17.70;99.90;;;;;;4972847;28;20869;-71
2022/08/29 06:18:06;;;;;;;2.57;2.47;;;17.70;99.90;;;;;;4974955;28;20472;-71
2022/08/29 06:20:33;;;;;;;4.40;2.27;;;17.70;99.90;;;;;;4969621;28;20479;-71
2022/08/29 06:23:00;;;;;;;4.00;2.00;;;17.70;99.90;;;;;;4973075;28;20751;-71
2022/08/29 06:25:26;;;;;;;2.20;2.10;;;17.80;99.90;;;;;;4971432;28;20842;-71
2022/08/29 06:27:54;;;;;;;2.53;2.43;;;17.80;99.90;;;;;;4972183;28;20471;-71
2022/08/29 06:30:21;;;;;;;2.40;2.07;;;17.80;99.90;;;;;;4971768;28;20462;-71
2022/08/29 06:32:48;;;;;;;4.40;2.27;;;17.90;99.90;;;;;;4971855;28;20489;-71
2022/08/29 06:35:17;;;;;;;5.60;2.03;;;17.90;99.90;;;;;;4954871;28;21001;-71
2022/08/29 06:37:43;;;;;;;2.20;2.10;;;17.90;99.90;;;;;;4967854;28;20504;-71
2022/08/29 06:40:11;;;;;;;3.13;2.93;;;18.00;99.90;;;;;;4964280;28;20462;-71
2022/08/29 06:42:38;;;;;;;3.83;2.83;;;18.00;99.90;;;;;;4956416;28;20502;-71
2022/08/29 06:45:06;;;;;;;2.23;2.23;;;18.10;99.90;;;;;;4955972;28;20514;-71
2022/08/29 06:47:33;;;;;;;2.20;2.10;;;18.10;99.90;;;;;;4956247;28;20470;-72
2022/08/29 06:50:00;;;;;;;2.53;2.33;;;18.20;99.90;;;;;;4956261;28;20471;-71
2022/08/29 06:52:28;;;;;;;1.90;1.80;;;18.30;99.90;;;;;;4956569;28;20477;-71
2022/08/29 06:54:55;;;;;;;3.80;2.83;;;18.30;99.90;;;;;;4967139;28;20515;-71
2022/08/29 06:57:22;;;;;;;3.30;3.00;;;18.30;99.90;;;;;;4966606;28;20467;-71
2022/08/29 06:59:49;;;;;;;3.07;2.43;;;18.50;99.90;;;;;;4955592;28;20978;-71
2022/08/29 07:02:16;;;;;;;2.90;2.70;;;18.50;99.90;;;;;;4956076;28;20510;-71
2022/08/29 07:04:42;;;;;;;2.67;2.47;;;18.60;99.90;;;;;;4956112;28;20534;-71
2022/08/29 07:07:09;;;;;;;2.83;2.73;;;18.70;99.90;;;;;;4967393;28;20462;-71
2022/08/29 07:09:37;;;;;;;2.37;2.37;;;18.80;99.90;;;;;;4956041;28;21367;-71
2022/08/29 07:12:05;;;;;;;2.63;2.50;;;18.90;99.90;;;;;;4966083;28;20537;-71
2022/08/29 07:14:32;;;;;;;7.83;2.60;;;18.90;99.90;;;;;;4957879;28;20505;-71
2022/08/29 07:16:59;;;;;;;2.80;2.70;;;18.90;99.90;;;;;;4967210;28;20471;-71
2022/08/29 07:19:26;;;;;;;3.73;2.13;;;18.90;99.90;;;;;;4974340;28;20949;-71
2022/08/29 07:21:53;;;;;;;1.50;1.50;;;18.90;99.90;;;;;;4974451;28;20475;-71
2022/08/29 07:24:20;;;;;;;8.30;3.30;;;18.90;99.90;;;;;;4965807;28;20466;-71
2022/08/29 07:26:49;;;;;;;2.10;1.90;;;19.10;99.90;;;;;;4955708;28;20472;-71
2022/08/29 07:29:19;;;;;;;2.33;2.00;;;19.10;99.90;;;;;;4962507;28;20475;-72
2022/08/29 07:31:47;;;;;;;1.60;1.43;;;19.10;99.90;;;;;;4970876;28;20467;-71
2022/08/29 07:34:15;;;;;;;4.60;1.90;;;19.20;99.90;;;;;;4955485;28;20502;-71
2022/08/29 07:36:42;;;;;;;2.30;1.43;;;19.30;99.90;;;;;;4955149;28;20472;-71
2022/08/29 07:39:11;;;;;;;1.30;1.30;;;19.40;99.90;;;;;;4955381;28;20507;-72
2022/08/29 07:41:39;;;;;;;2.97;2.63;;;19.50;99.90;;;;;;4955272;28;20562;-71
2022/08/29 07:44:08;;;;;;;3.17;3.03;;;19.60;99.90;;;;;;4954795;28;20809;-72
2022/08/29 07:46:35;;;;;;;3.20;3.00;;;19.70;99.90;;;;;;4969263;28;20482;-72
2022/08/29 07:49:03;;;;;;;3.20;3.03;;;19.80;99.90;;;;;;4972733;28;20480;-72
2022/08/29 07:51:30;;;;;;;4.53;2.50;;;19.80;99.90;;;;;;4963895;28;20474;-72
2022/08/29 07:53:57;;;;;;;2.70;2.60;;;19.90;99.90;;;;;;4959465;28;20920;-72
2022/08/29 07:56:26;;;;;;;2.30;2.30;;;20.10;99.90;;;;;;4963129;28;20487;-71
2022/08/29 07:58:54;;;;;;;5.40;2.43;;;20.10;99.90;;;;;;4954651;28;20966;-71
2022/08/29 08:01:22;;;;;;;2.23;2.23;;;20.10;99.90;;;;;;4954616;28;20976;-71
2022/08/29 08:03:49;;;;;;;2.70;2.60;;;20.00;99.90;;;;;;4954423;28;20500;-71
2022/08/29 08:06:16;;;;;;;1.97;1.97;;;19.90;99.90;;;;;;4954309;28;20490;-71
2022/08/29 08:08:43;;;;;;;1.87;1.80;;;20.00;99.90;;;;;;4967993;28;20476;-71
2022/08/29 08:11:10;;;;;;;1.43;1.43;;;20.20;99.90;;;;;;4966435;28;20473;-71
2022/08/29 08:13:37;;;;;;;1.43;1.43;;;20.40;99.90;;;;;;4954194;28;20934;-70
2022/08/29 08:16:06;;;;;;;1.63;1.63;;;20.60;99.90;;;;;;4954590;28;20525;-71
2022/08/29 08:18:37;;;;;;;1.23;1.23;;;20.70;99.90;;;;;;4954472;28;20821;-70
2022/08/29 08:21:04;;;;;;;1.53;1.53;;;20.80;99.90;;;;;;4954343;28;20501;-70
2022/08/29 08:23:31;;;;;;;2.07;1.80;;;20.90;99.90;;;;;;4955292;28;20484;-70
2022/08/29 08:25:58;;;;;;;1.30;1.30;;;20.70;99.90;;;;;;4962495;28;20482;-69
2022/08/29 08:28:27;;;;;;;1.80;1.80;;;20.50;99.90;;;;;;4953920;28;20473;-70
2022/08/29 08:30:53;;;;;;;3.60;0.93;;;20.60;99.90;;;;;;4954354;28;20466;-70
2022/08/29 08:33:20;;;;;;;1.20;1.20;;;20.70;99.90;;;;;;4953685;28;20491;-71
2022/08/29 08:35:48;;;;;;;1.37;1.37;;;20.80;99.90;;;;;;4953741;28;20501;-70
2022/08/29 08:38:16;;;;;;;1.33;1.33;;;20.80;99.90;;;;;;4954107;28;20470;-70
2022/08/29 08:40:47;;;;;;;0.93;0.93;;;20.90;99.90;;;;;;4959867;28;20470;-70
2022/08/29 08:43:19;;;;;;;0.67;0.67;;;20.90;99.90;;;;;;4962098;28;20465;-72
2022/08/29 08:45:46;;;;;;;0.67;0.67;;;20.90;99.90;;;;;;4954589;28;20600;-70
2022/08/29 08:48:17;;;;;;;1.13;1.13;;;20.80;99.90;;;;;;4955579;28;20500;-71
2022/08/29 08:50:50;;;;;;;0.83;0.83;;;20.80;99.90;;;;;;4954851;28;20496;-70
2022/08/29 08:53:21;;;;;;;0.93;0.93;;;20.90;99.90;;;;;;4954788;28;20473;-71
2022/08/29 08:55:50;;;;;;;0.87;0.87;;;20.90;99.90;;;;;;4954365;28;20486;-71
2022/08/29 08:58:28;;;;;;;1.80;0.77;;;20.80;99.90;;;;;;4962566;28;20471;-71
2022/08/29 09:00:58;;;;;;;0.80;0.80;;;20.90;99.90;;;;;;4973554;28;20476;-72
2022/08/29 09:04:02;;;;;;;1.37;1.10;;;21.00;99.90;;;;;;4973580;28;20473;-71
2022/08/29 09:06:41;;;;;;;2.40;0.90;;;21.20;99.90;;;;;;4968978;28;20966;-72
2022/08/29 09:09:17;;;;;;;1.10;1.00;;;21.30;99.90;;;;;;4973169;28;20468;-71
2022/08/29 09:11:54;;;;;;;0.53;0.53;;;21.20;99.90;;;;;;4973498;28;20495;-71
2022/08/29 09:14:32;;;;;;;0.80;0.80;;;21.40;99.90;;;;;;4968916;28;20675;-71
2022/08/29 09:17:02;;;;;;;0.70;0.60;;;21.50;99.90;;;;;;4965171;28;20520;-71
2022/08/29 09:19:30;;;;;;;0.60;0.60;;;21.70;99.90;;;;;;4972748;28;20478;-71
2022/08/29 09:22:06;;;;;;;0.80;0.80;;;21.80;99.90;;;;;;4973638;28;20481;-71
2022/08/29 09:24:40;;;;;;;0.90;0.90;;;21.90;99.90;;;;;;4972895;28;20492;-71
2022/08/29 09:27:07;;;;;;;0.60;0.60;;;22.00;99.90;;;;;;4973679;28;20466;-71
2022/08/29 09:29:36;;;;;;;0.70;0.70;;;21.90;99.90;;;;;;4971112;28;20566;-71
2022/08/29 09:32:09;;;;;;;1.00;1.00;;;21.90;99.90;;;;;;4966678;28;21001;-71
2022/08/29 09:34:39;;;;;;;0.90;0.90;;;21.90;99.90;;;;;;4953003;28;20559;-71
2022/08/29 09:37:22;;;;;;;1.57;0.90;;;22.00;99.90;;;;;;4953881;28;20832;-71
2022/08/29 09:39:57;;;;;;;0.60;0.60;;;22.10;99.90;;;;;;4953646;28;20894;-71
2022/08/29 09:42:30;;;;;;;0.83;0.83;;;22.20;99.90;;;;;;4953881;28;20984;-70
2022/08/29 09:45:01;;;;;;;0.70;0.70;;;22.20;99.90;;;;;;4958715;28;20512;-71
2022/08/29 09:47:31;;;;;;;0.80;0.80;;;22.10;99.90;;;;;;4971438;28;20458;-71
2022/08/29 09:50:08;;;;;;;0.60;0.60;;;21.90;99.90;;;;;;4953354;28;20472;-71
2022/08/29 09:52:38;;;;;;;0.67;0.67;;;21.90;99.90;;;;;;4953896;28;20496;-72
2022/08/29 09:55:28;;;;;;;0.80;0.80;;;21.90;99.90;;;;;;4958574;28;20520;-71
2022/08/29 09:57:59;;;;;;;0.60;0.60;;;21.90;99.90;;;;;;4965669;28;20488;-71
2022/08/29 10:00:28;;;;;;;1.37;0.90;;;21.90;99.90;;;;;;4974907;28;20492;-70
2022/08/29 10:02:59;;;;;;;0.50;0.50;;;21.90;99.90;;;;;;4977303;28;20472;-70
2022/08/29 10:05:33;;;;;;;1.87;0.70;;;22.10;99.90;;;;;;4976879;28;20499;-71
2022/08/29 10:08:04;;;;;;;0.70;0.70;;;22.20;99.90;;;;;;4973936;28;20460;-71
2022/08/29 10:10:34;;;;;;;2.00;0.83;;;22.10;99.90;;;;;;4973708;28;20457;-71
2022/08/29 10:13:07;;;;;;;0.87;0.87;;;22.10;99.90;;;;;;4972647;28;20484;-70
2022/08/29 10:15:39;;;;;;;0.93;0.93;;;22.00;99.90;;;;;;4975475;28;20836;-71
2022/08/29 10:18:22;;;;;;;0.90;0.90;;;21.90;99.90;;;;;;4980137;28;20469;-71
2022/08/29 10:21:09;;;;;;;0.77;0.77;;;22.00;99.90;;;;;;4977107;28;20463;-71
2022/08/29 10:23:45;;;;;;;0.87;0.87;;;22.20;99.90;;;;;;4985400;28;20464;-71
2022/08/29 10:26:24;;;;;;;1.17;1.17;;;22.40;99.90;;;;;;4985467;28;20517;-72
2022/08/29 10:28:56;;;;;;;1.50;0.83;;;22.30;99.90;;;;;;4985520;28;20524;-71
2022/08/29 10:31:32;;;;;;;0.53;0.53;;;22.30;99.90;;;;;;4985039;28;20474;-71
2022/08/29 10:34:11;;;;;;;0.80;0.80;;;22.20;99.90;;;;;;4971046;28;20501;-70
2022/08/29 10:36:40;;;;;;;0.57;0.57;;;22.20;99.90;;;;;;4966183;28;20470;-71
2022/08/29 10:39:13;;;;;;;0.70;0.70;;;22.30;99.90;;;;;;4966569;28;20497;-71
2022/08/29 10:41:51;;;;;;;0.50;0.50;;;22.40;99.90;;;;;;4971196;28;20474;-71
2022/08/29 10:44:28;;;;;;;0.80;0.80;;;22.40;99.90;;;;;;4979482;28;20449;-70
2022/08/29 10:47:18;;;;;;;0.63;0.63;;;22.50;99.90;;;;;;4969617;28;20475;-72
2022/08/29 10:50:12;;;;;;;0.50;0.50;;;22.60;99.90;;;;;;4966405;28;20465;-72
2022/08/29 10:52:49;;;;;;;0.83;0.83;;;22.60;99.90;;;;;;4979665;28;20466;-71
2022/08/29 10:55:22;;;;;;;0.63;0.63;;;22.70;99.90;;;;;;4974931;28;20851;-70
2022/08/29 10:58:00;;;;;;;2.00;1.20;;;22.70;99.90;;;;;;4975901;28;20454;-71
2022/08/29 11:00:37;;;;;;;0.67;0.67;;;22.70;99.90;;;;;;4988089;28;20473;-71
2022/08/29 11:03:13;;;;;;;0.60;0.60;;;22.70;99.90;;;;;;4986185;28;20469;-70
2022/08/29 11:05:44;;;;;;;0.70;0.70;;;22.70;99.90;;;;;;4982253;28;20564;-71
2022/08/29 11:08:17;;;;;;;0.50;0.50;;;22.80;99.90;;;;;;4983029;28;20454;-72
2022/08/29 11:10:48;;;;;;;0.80;0.80;;;23.10;99.90;;;;;;4986434;28;20478;-72
2022/08/29 11:13:20;;;;;;;0.60;0.60;;;23.20;99.90;;;;;;4986018;28;20557;-72
2022/08/29 11:15:56;;;;;;;0.87;0.80;;;23.20;99.90;;;;;;4984618;28;20486;-70
2022/08/29 11:18:27;;;;;;;0.60;0.60;;;23.00;99.90;;;;;;4986660;28;20445;-70
2022/08/29 11:20:58;;;;;;;0.43;0.43;;;22.80;99.90;;;;;;4981728;28;20557;-72
2022/08/29 11:23:34;;;;;;;0.63;0.63;;;22.90;99.90;;;;;;4974128;28;20468;-71
2022/08/29 11:26:12;;;;;;;0.90;0.90;;;22.90;99.90;;;;;;4984247;28;20474;-70
2022/08/29 11:28:43;;;;;;;0.83;0.83;;;23.00;99.90;;;;;;4984253;28;20469;-70
2022/08/29 11:31:17;;;;;;;0.50;0.50;;;23.10;99.90;;;;;;4980775;28;20478;-72
2022/08/29 11:33:51;;;;;;;0.57;0.57;;;23.00;99.90;;;;;;4975778;28;20492;-71
2022/08/29 11:36:34;;;;;;;0.50;0.50;;;22.90;99.90;;;;;;4974131;28;20492;-72
2022/08/29 11:39:39;;;;;;;0.63;0.63;;;22.80;99.90;;;;;;4960314;28;20467;-71
2022/08/29 11:42:11;;;;;;;0.97;0.97;;;22.90;99.90;;;;;;4947541;28;20480;-72
2022/08/29 11:44:43;;;;;;;0.87;0.87;;;23.00;99.90;;;;;;4962574;28;20483;-73
2022/08/29 11:47:32;;;;;;;0.50;0.50;;;22.90;99.90;;;;;;4955263;28;20470;-72
2022/08/29 11:50:05;;;;;;;0.73;0.73;;;23.00;99.90;;;;;;4954926;28;20475;-73
2022/08/29 11:52:33;;;;;;;0.90;0.90;;;23.10;99.90;;;;;;4960706;28;20474;-69
2022/08/29 11:55:27;;;;;;;0.90;0.90;;;23.10;99.90;;;;;;4960911;28;20499;-71
2022/08/29 11:57:59;;;;;;;0.70;0.70;;;23.10;99.90;;;;;;4968181;28;20494;-72
2022/08/29 12:00:50;;;;;;;1.57;0.87;;;23.10;99.90;;;;;;4970647;28;20514;-71
2022/08/29 12:03:56;;;;;;;0.60;0.60;;;23.10;99.90;;;;;;4970194;28;20553;-72
2022/08/29 12:06:49;;;;;;;0.87;0.87;;;23.10;99.90;;;;;;4956824;28;20479;-71
2022/08/29 12:09:44;;;;;;;0.60;0.60;;;22.90;99.90;;;;;;4951213;28;20505;-70
2022/08/29 12:12:37;;;;;;;0.80;0.80;;;23.00;99.90;;;;;;4955113;28;20474;-73
2022/08/29 12:15:45;;;;;;;0.80;0.80;;;22.90;99.90;;;;;;4961008;28;20501;-72
2022/08/29 12:18:45;;;;;;;0.60;0.60;;;23.00;99.90;;;;;;4970328;28;20550;-71
2022/08/29 12:21:44;;;;;;;1.43;0.70;;;23.10;99.90;;;;;;4940691;28;21002;-72
2022/08/29 12:24:28;;;;;;;0.47;0.47;;;23.20;99.90;;;;;;4971509;28;20466;-73
2022/08/29 12:26:55;;;;;;;1.50;0.50;;;23.40;99.90;;;;;;4968460;28;20921;-71
2022/08/29 12:29:25;;;;;;;0.50;0.50;;;23.60;99.90;;;;;;4953752;28;20474;-72
2022/08/29 12:32:14;;;;;;;0.70;0.70;;;23.60;99.90;;;;;;4958513;28;20883;-71
2022/08/29 12:34:59;;;;;;;0.57;0.57;;;23.60;99.90;;;;;;4963815;28;20606;-71
2022/08/29 12:37:36;;;;;;;0.50;0.50;;;23.70;99.90;;;;;;4963723;28;20468;-72
2022/08/29 12:40:30;;;;;;;0.40;0.40;;;23.80;99.90;;;;;;4953998;28;20484;-71
2022/08/29 12:43:25;;;;;;;0.33;0.33;;;23.90;99.90;;;;;;4953857;28;20464;-72
2022/08/29 12:45:53;;;;;;;0.43;0.43;;;23.90;99.90;;;;;;4965335;28;20546;-72
2022/08/29 12:48:24;;;;;;;0.40;0.40;;;24.00;99.90;;;;;;4971207;28;20479;-71
2022/08/29 12:50:53;;;;;;;0.57;0.57;;;24.10;99.90;;;;;;4960144;28;20467;-71
2022/08/29 12:53:22;;;;;;;0.30;0.30;;;24.10;99.90;;;;;;4953891;28;20944;-71
2022/08/29 12:55:52;;;;;;;0.37;0.37;;;24.00;99.90;;;;;;4953946;28;20511;-71
2022/08/29 12:58:34;;;;;;;0.50;0.50;;;24.00;99.90;;;;;;4953712;28;20472;-70
2022/08/29 13:01:02;;;;;;;0.47;0.47;;;23.90;99.90;;;;;;4965174;28;20478;-71
2022/08/29 13:03:28;;;;;;;0.60;0.60;;;23.80;99.90;;;;;;4963308;28;20464;-71
2022/08/29 13:06:07;;;;;;;0.30;0.30;;;23.70;99.90;;;;;;4953734;28;20832;-71
2022/08/29 13:08:36;;;;;;;0.27;0.27;;;23.70;99.90;;;;;;4953846;28;20839;-71
2022/08/29 13:11:07;;;;;;;0.20;0.20;;;23.60;99.90;;;;;;4954179;28;20555;-71
2022/08/29 13:13:35;;;;;;;0.50;0.50;;;23.50;99.90;;;;;;4953481;28;20475;-72
2022/08/29 13:16:05;;;;;;;0.43;0.43;;;23.30;99.90;;;;;;4971783;28;20498;-71
2022/08/29 13:18:32;;;;;;;0.37;0.37;;;23.20;99.90;;;;;;4954820;28;20471;-71
2022/08/29 13:21:09;;;;;;;0.30;0.30;;;23.20;99.90;;;;;;4953431;28;20462;-72
2022/08/29 13:23:44;;;;;;;3.43;0.60;;;23.20;99.90;;;;;;4953172;28;20553;-73
2022/08/29 13:26:21;;;;;;;0.30;0.30;;;23.30;99.90;;;;;;4953457;28;20529;-73
2022/08/29 13:28:50;;;;;;;0.30;0.30;;;23.50;99.90;;;;;;4959362;28;20495;-72
2022/08/29 13:31:31;;;;;;;0.27;0.27;;;23.70;99.90;;;;;;4972811;28;20466;-73
2022/08/29 13:34:26;;;;;;;0.37;0.37;;;23.80;99.90;;;;;;4972430;28;20980;-72
2022/08/29 13:37:06;;;;;;;0.53;0.53;;;23.60;99.90;;;;;;4973014;28;20482;-72
2022/08/29 13:39:39;;;;;;;0.30;0.30;;;23.50;99.90;;;;;;4972648;28;20508;-72
2022/08/29 13:42:22;;;;;;;0.50;0.50;;;23.50;99.90;;;;;;4971107;28;20541;-70
2022/08/29 13:45:06;;;;;;;0.40;0.40;;;23.60;99.90;;;;;;4960552;28;20479;-72
2022/08/29 13:47:42;;;;;;;1.43;0.40;;;23.80;99.90;;;;;;4953133;28;20464;-71
2022/08/29 13:50:11;;;;;;;0.57;0.57;;;23.80;99.90;;;;;;4953043;28;20801;-71
2022/08/29 13:52:39;;;;;;;0.53;0.43;;;23.90;99.90;;;;;;4953079;28;20467;-70
2022/08/29 13:55:08;;;;;;;0.50;0.50;;;23.80;99.90;;;;;;4952951;28;20513;-70
2022/08/29 13:57:35;;;;;;;0.40;0.40;;;23.80;99.90;;;;;;4965096;28;21021;-71
2022/08/29 14:00:06;;;;;;;0.40;0.40;;;23.70;99.90;;;;;;4957587;28;20463;-70
2022/08/29 14:02:32;;;;;;;0.40;0.40;;;23.70;99.90;;;;;;4953505;28;20668;-70
2022/08/29 14:04:59;;;;;;;0.67;0.67;;;23.60;99.90;;;;;;4952677;28;20995;-72
2022/08/29 14:07:30;;;;;;;0.40;0.40;;;23.50;99.90;;;;;;4953301;28;20543;-72
2022/08/29 14:09:58;;;;;;;0.33;0.33;;;23.30;99.90;;;;;;4952844;28;20488;-72
2022/08/29 14:12:25;;;;;;;0.40;0.40;;;23.20;99.90;;;;;;4970879;28;20492;-71
2022/08/29 14:14:52;;;;;;;0.60;0.60;;;23.00;99.90;;;;;;4958362;28;20496;-72
2022/08/29 14:17:19;;;;;;;0.30;0.30;;;22.90;99.90;;;;;;4953397;28;20471;-72
2022/08/29 14:19:46;;;;;;;0.40;0.40;;;22.80;99.90;;;;;;4952723;28;20941;-71
2022/08/29 14:22:14;;;;;;;0.40;0.40;;;22.70;99.90;;;;;;4953021;28;20944;-72
2022/08/29 14:24:40;;;;;;;0.63;0.63;;;22.50;99.90;;;;;;4954393;28;20504;-71
2022/08/29 14:27:09;;;;;;;0.43;0.33;;;22.50;99.90;;;;;;4971779;28;20463;-70
2022/08/29 14:29:36;;;;;;;0.70;0.63;;;22.50;99.90;;;;;;4952143;28;20570;-71
2022/08/29 14:32:03;;;;;;;0.40;0.40;;;22.60;99.90;;;;;;4954027;28;20542;-71
2022/08/29 14:34:31;;;;;;;0.67;0.40;;;22.60;99.90;;;;;;4968416;28;20974;-71
2022/08/29 14:36:58;;;;;;;0.43;0.43;;;22.70;99.90;;;;;;4952240;28;20489;-70
2022/08/29 14:39:24;;;;;;;0.40;0.40;;;22.60;99.90;;;;;;4956982;28;20473;-71
2022/08/29 14:41:51;;;;;;;0.37;0.37;;;22.50;99.90;;;;;;4960212;28;20835;-71
2022/08/29 14:44:20;;;;;;;0.37;0.37;;;22.40;99.90;;;;;;4951100;28;20469;-71
2022/08/29 14:46:47;;;;;;;0.70;0.40;;;22.30;99.90;;;;;;4952231;28;20501;-71
2022/08/29 14:49:14;;;;;;;0.60;0.60;;;22.20;99.90;;;;;;4952529;28;20888;-70
2022/08/29 14:51:41;;;;;;;0.40;0.40;;;22.30;99.90;;;;;;4951972;28;20798;-70
2022/08/29 14:54:07;;;;;;;0.67;0.30;;;22.30;99.90;;;;;;4963967;28;20473;-70
2022/08/29 14:56:35;;;;;;;0.50;0.50;;;22.20;99.90;;;;;;4960859;28;20513;-71
2022/08/29 14:59:01;;;;;;;0.20;0.20;;;22.20;99.90;;;;;;4952786;28;20467;-71
2022/08/29 15:01:30;;;;;;;0.20;0.20;;;22.10;99.90;;;;;;4955680;28;20470;-72
2022/08/29 15:03:56;;;;;;;0.50;0.33;;;22.20;99.90;;;;;;4956183;28;20466;-70
2022/08/29 15:06:23;;;;;;;0.43;0.43;;;22.40;99.90;;;;;;4955666;28;20827;-71
2022/08/29 15:08:50;;;;;;;0.60;0.60;;;22.60;99.90;;;;;;4971736;28;20469;-71
2022/08/29 15:11:16;;;;;;;0.27;0.27;;;22.60;99.90;;;;;;4958913;28;20893;-70
2022/08/29 15:13:43;;;;;;;0.20;0.20;;;22.60;99.90;;;;;;4955157;28;20471;-70
2022/08/29 15:16:10;;;;;;;0.20;0.20;;;22.30;99.90;;;;;;4955594;28;20506;-70
2022/08/29 15:18:39;;;;;;;0.30;0.30;;;22.20;99.90;;;;;;4955555;28;20489;-71
2022/08/29 15:21:06;;;;;;;0.20;0.20;;;22.00;99.90;;;;;;4956568;28;20822;-71
2022/08/29 15:23:33;;;;;;;1.80;0.50;;;21.90;99.90;;;;;;4969879;28;20480;-71
2022/08/29 15:26:01;;;;;;;0.40;0.40;;;21.80;99.90;;;;;;4967318;28;20491;-71
2022/08/29 15:28:28;;;;;;;0.50;0.50;;;21.70;99.90;;;;;;4957096;28;20496;-71
2022/08/29 15:30:55;;;;;;;0.67;0.30;;;21.70;99.90;;;;;;4956301;28;20574;-71
2022/08/29 15:33:23;;;;;;;0.33;0.33;;;21.60;99.90;;;;;;4955945;28;20795;-71
2022/08/29 15:35:51;;;;;;;0.33;0.33;;;21.50;99.90;;;;;;4957827;28;20498;-71
2022/08/29 15:38:18;;;;;;;0.20;0.20;;;21.40;99.90;;;;;;4974538;28;20475;-71
2022/08/29 15:40:45;;;;;;;0.20;0.20;;;21.30;99.90;;;;;;4955692;28;20575;-70
2022/08/29 15:43:12;;;;;;;1.47;0.30;;;21.30;99.90;;;;;;4955702;28;20475;-71
2022/08/29 15:45:39;;;;;;;0.27;0.27;;;21.40;99.90;;;;;;4955571;28;20481;-71
2022/08/29 15:48:07;;;;;;;0.20;0.20;;;21.40;99.90;;;;;;4959210;28;20465;-71
2022/08/29 15:50:35;;;;;;;0.40;0.40;;;21.40;99.90;;;;;;4963849;28;20477;-71
2022/08/29 15:53:03;;;;;;;0.10;0.10;;;21.20;99.90;;;;;;4960272;28;20468;-70
2022/08/29 15:55:30;;;;;;;0.20;0.20;;;20.90;99.90;;;;;;4955080;28;20602;-71
2022/08/29 15:57:57;;;;;;;1.03;0.30;;;20.80;99.90;;;;;;4955701;28;20462;-71
2022/08/29 16:00:26;;;;;;;0.20;0.20;;;20.80;99.90;;;;;;4959020;28;20497;-71
2022/08/29 16:02:53;;;;;;;0.10;0.10;;;20.80;99.90;;;;;;4967970;28;20678;-71
2022/08/29 16:05:20;;;;;;;0.20;0.20;;;20.80;99.90;;;;;;4964116;28;21009;-72
2022/08/29 16:07:47;;;;;;;0.20;0.20;;;20.90;99.90;;;;;;4955667;28;20470;-71
2022/08/29 16:10:15;;;;;;;0.20;0.20;;;21.00;99.90;;;;;;4954162;28;20466;-71
2022/08/29 16:12:42;;;;;;;0.20;0.20;;;20.90;99.90;;;;;;4954679;28;20473;-71
2022/08/29 16:15:09;;;;;;;0.47;0.40;;;20.90;99.90;;;;;;4954615;28;20889;-72
2022/08/29 16:17:36;;;;;;;0.40;0.40;;;20.90;99.90;;;;;;5010783;23;20511;-73
2022/08/29 16:20:06;;;;;;;0.30;0.30;;;20.90;99.90;;;;;;4973595;28;20931;-73
2022/08/29 16:22:32;;;;;;;0.23;0.23;;;20.90;99.90;;;;;;4973624;28;20471;-73
2022/08/29 16:25:00;;;;;;;0.27;0.27;;;20.90;99.90;;;;;;4973754;28;20468;-73
2022/08/29 16:27:28;;;;;;;0.23;0.23;;;20.90;99.90;;;;;;4958365;28;20559;-73
2022/08/29 16:29:56;;;;;;;0.20;0.20;;;21.00;99.90;;;;;;4959838;28;20475;-71
2022/08/29 16:32:23;;;;;;;0.20;0.20;;;21.00;99.90;;;;;;4964511;28;20464;-72
2022/08/29 16:34:50;;;;;;;1.70;0.40;;;21.00;99.90;;;;;;4954409;28;20460;-74
2022/08/29 16:37:17;;;;;;;0.30;0.30;;;21.00;99.90;;;;;;4954948;28;20580;-72
2022/08/29 16:39:44;;;;;;;1.07;0.40;;;21.10;99.90;;;;;;4955950;28;20516;-73
2022/08/29 16:42:11;;;;;;;0.40;0.30;;;21.10;99.90;;;;;;4965618;28;20476;-72
2022/08/29 16:44:40;;;;;;;0.30;0.30;;;21.20;99.90;;;;;;4968547;28;20869;-72
2022/08/29 16:47:07;;;;;;;0.30;0.30;;;21.20;99.90;;;;;;4963123;28;20485;-73
2022/08/29 16:49:34;;;;;;;0.20;0.20;;;21.00;99.90;;;;;;4964437;28;20477;-73
2022/08/29 16:52:01;;;;;;;0.87;0.30;;;20.90;99.90;;;;;;4974102;28;20468;-73
2022/08/29 16:54:28;;;;;;;0.30;0.30;;;20.90;99.90;;;;;;4973559;28;20619;-73
2022/08/29 16:56:56;;;;;;;0.20;0.20;;;20.80;99.90;;;;;;4974329;28;20515;-72
2022/08/29 16:59:23;;;;;;;0.23;0.23;;;20.70;99.90;;;;;;4973922;28;20464;-72
2022/08/29 17:01:53;;;;;;;0.20;0.20;;;20.50;99.90;;;;;;4972716;28;20475;-73
2022/08/29 17:04:22;;;;;;;0.20;0.20;;;20.40;99.90;;;;;;4972516;28;20467;-72
2022/08/29 17:06:49;;;;;;;0.20;0.20;;;20.20;99.90;;;;;;4973071;28;20489;-73